createdAt,value
2018-12-30T00:20:39.386Z,16.10
2018-12-30T00:23:09.592Z,17.77
2018-12-30T00:25:39.895Z,18.80
2018-12-30T00:28:10.142Z,18.97
2018-12-30T00:30:40.387Z,21.97
2018-12-30T00:33:10.631Z,18.87
2018-12-30T00:35:40.851Z,18.20
2018-12-30T00:38:11.075Z,16.70
2018-12-30T00:40:41.319Z,17.00
2018-12-30T00:43:11.530Z,19.93
2018-12-30T00:45:41.762Z,18.63
2018-12-30T00:48:11.981Z,13.80
2018-12-30T01:58:01.778Z,14.90
2018-12-30T02:10:29.592Z,20.83
2018-12-30T02:12:59.785Z,21.30
2018-12-30T02:15:30.000Z,17.70
2018-12-30T02:18:00.380Z,18.87
2018-12-30T02:20:30.598Z,20.97
2018-12-30T02:23:00.795Z,23.77
2018-12-30T02:25:31.039Z,18.00
2018-12-30T02:28:01.354Z,19.60
2018-12-30T02:30:33.303Z,25.10
2018-12-30T02:33:03.499Z,18.73
2018-12-30T02:35:33.738Z,20.83
2018-12-30T02:38:04.725Z,17.67
2018-12-30T02:40:35.323Z,18.53
2018-12-30T02:43:05.525Z,18.10
2018-12-30T02:45:35.754Z,18.23
2018-12-30T02:48:06.032Z,17.20
2018-12-30T02:50:36.270Z,16.70
2018-12-30T02:53:06.465Z,18.10
2018-12-30T02:55:36.680Z,20.53
2018-12-30T02:58:07.081Z,19.00
2018-12-30T03:00:37.307Z,19.97
2018-12-30T03:03:07.784Z,17.80
2018-12-30T03:05:38.002Z,14.97
2018-12-30T03:08:08.665Z,17.23
2018-12-30T03:10:38.908Z,16.97
2018-12-30T03:13:09.074Z,13.60
2018-12-30T03:15:39.340Z,15.33
2018-12-30T03:18:09.566Z,14.60
2018-12-30T03:20:39.779Z,18.20
2018-12-30T03:23:09.991Z,17.07
2018-12-30T03:25:40.233Z,15.73
2018-12-30T03:28:10.460Z,15.77
2018-12-30T03:30:40.694Z,13.67
2018-12-30T03:33:10.863Z,11.97
2018-12-30T03:35:41.097Z,13.73
2018-12-30T03:38:11.352Z,14.53
2018-12-30T03:40:41.559Z,14.10
2018-12-30T03:43:11.831Z,10.77
2018-12-30T03:45:42.057Z,11.60
2018-12-30T03:48:12.255Z,10.63
2018-12-30T03:50:42.478Z,10.80
2018-12-30T03:53:12.666Z,10.93
2018-12-30T03:55:42.891Z,8.73
2018-12-30T03:58:13.111Z,7.30
2018-12-30T04:00:43.341Z,8.07
2018-12-30T04:03:13.550Z,9.27
2018-12-30T04:05:43.768Z,6.70
2018-12-30T04:08:13.972Z,6.60
2018-12-30T04:10:44.215Z,6.47
2018-12-30T04:13:14.409Z,7.17
2018-12-30T04:15:44.657Z,7.37
2018-12-30T04:18:14.860Z,7.30
2018-12-30T04:20:45.090Z,8.90
2018-12-30T04:23:15.373Z,9.13
2018-12-30T04:25:45.578Z,6.43
2018-12-30T04:28:15.848Z,9.27
2018-12-30T04:30:46.058Z,7.37
2018-12-30T04:33:16.268Z,8.30
2018-12-30T04:35:46.483Z,8.67
2018-12-30T04:38:16.690Z,8.77
2018-12-30T04:40:46.906Z,12.83
2018-12-30T04:43:17.114Z,13.13
2018-12-30T04:45:47.352Z,13.47
2018-12-30T04:48:17.699Z,14.47
2018-12-30T04:50:47.908Z,13.33
2018-12-30T04:53:18.109Z,18.50
2018-12-30T04:55:48.342Z,16.53
2018-12-30T04:58:18.710Z,15.67
2018-12-30T05:00:48.940Z,13.60
2018-12-30T05:03:19.146Z,14.07
2018-12-30T05:05:49.362Z,15.60
2018-12-30T05:08:19.685Z,13.93
2018-12-30T05:10:49.906Z,17.70
2018-12-30T05:13:20.144Z,20.10
2018-12-30T05:15:50.364Z,15.63
2018-12-30T05:18:20.570Z,14.17
2018-12-30T05:20:50.784Z,16.90
2018-12-30T05:23:20.984Z,15.60
2018-12-30T05:25:51.219Z,13.13
2018-12-30T05:28:21.522Z,14.10
2018-12-30T05:30:51.743Z,16.37
2018-12-30T05:33:21.960Z,13.63
2018-12-30T05:35:52.159Z,18.57
2018-12-30T05:38:22.424Z,20.60
2018-12-30T05:40:52.747Z,14.07
2018-12-30T05:43:22.937Z,22.67
2018-12-30T05:45:53.248Z,12.27
2018-12-30T05:48:23.458Z,14.30
2018-12-30T05:50:53.692Z,15.70
2018-12-30T05:53:23.903Z,20.07
2018-12-30T05:55:54.139Z,13.87
2018-12-30T05:58:24.969Z,13.50
2018-12-30T06:00:55.237Z,15.60
2018-12-30T06:03:25.447Z,13.50
2018-12-30T06:05:55.667Z,17.47
2018-12-30T06:08:25.938Z,14.30
2018-12-30T06:10:56.154Z,13.77
2018-12-30T06:13:26.344Z,11.10
2018-12-30T06:15:56.563Z,15.23
2018-12-30T06:18:26.753Z,18.67
2018-12-30T06:20:56.967Z,13.90
2018-12-30T06:23:27.196Z,15.30
2018-12-30T06:25:57.411Z,9.23
2018-12-30T06:28:28.407Z,10.00
2018-12-30T06:30:58.632Z,10.67
2018-12-30T06:33:28.844Z,11.40
2018-12-30T06:35:59.091Z,17.30
2018-12-30T06:38:29.941Z,14.73
2018-12-30T06:41:01.206Z,18.27
2018-12-30T06:43:31.424Z,17.13
2018-12-30T06:46:01.638Z,12.80
2018-12-30T06:48:31.850Z,7.23
2018-12-30T06:51:02.407Z,14.83
2018-12-30T06:53:32.586Z,10.93
2018-12-30T06:56:02.824Z,11.97
2018-12-30T06:58:33.180Z,10.47
2018-12-30T07:01:03.419Z,10.23
2018-12-30T07:03:33.626Z,12.90
2018-12-30T07:06:03.848Z,9.97
2018-12-30T07:08:34.256Z,17.97
2018-12-30T07:11:04.748Z,11.03
2018-12-30T07:13:34.948Z,7.03
2018-12-30T07:16:05.170Z,17.20
2018-12-30T07:18:35.387Z,8.03
2018-12-30T07:21:05.602Z,10.17
2018-12-30T07:23:35.808Z,11.47
2018-12-30T07:26:06.016Z,7.87
2018-12-30T07:28:36.234Z,7.10
2018-12-30T07:31:06.464Z,10.07
2018-12-30T07:33:36.668Z,6.10
2018-12-30T07:36:06.874Z,10.17
2018-12-30T07:38:37.087Z,8.93
2018-12-30T07:41:07.310Z,11.23
2018-12-30T07:43:37.520Z,16.50
2018-12-30T07:46:07.752Z,8.83
2018-12-30T07:48:37.949Z,12.90
2018-12-30T07:51:08.155Z,7.10
2018-12-30T07:53:38.336Z,9.17
2018-12-30T07:56:08.571Z,5.83
2018-12-30T07:58:38.800Z,14.50
2018-12-30T08:01:09.027Z,10.70
2018-12-30T08:03:39.248Z,14.40
2018-12-30T08:06:09.479Z,13.73
2018-12-30T08:08:39.674Z,12.43
2018-12-30T08:11:09.904Z,11.07
2018-12-30T08:13:40.180Z,8.53
2018-12-30T08:16:10.402Z,9.30
2018-12-30T08:18:40.616Z,8.10
2018-12-30T08:21:10.844Z,8.63
2018-12-30T08:23:41.069Z,18.17
2018-12-30T08:26:11.297Z,12.60
2018-12-30T08:28:42.597Z,7.10
2018-12-30T08:31:12.883Z,7.47
2018-12-30T08:33:43.087Z,8.97
2018-12-30T08:36:13.291Z,6.73
2018-12-30T08:38:43.496Z,6.67
2018-12-30T08:41:13.721Z,8.30
2018-12-30T08:43:43.913Z,11.37
2018-12-30T08:46:26.315Z,11.03
2018-12-30T08:48:56.518Z,6.83
2018-12-30T08:51:26.753Z,12.63
2018-12-30T08:53:56.967Z,8.30
2018-12-30T08:56:27.208Z,12.43
2018-12-30T08:58:57.420Z,8.00
2018-12-30T09:01:28.372Z,4.57
2018-12-30T09:03:58.961Z,9.93
2018-12-30T09:06:29.163Z,7.03
2018-12-30T09:08:59.374Z,8.47
2018-12-30T09:11:29.585Z,4.87
2018-12-30T09:13:59.794Z,3.40
2018-12-30T09:16:30.005Z,5.43
2018-12-30T09:19:00.233Z,2.93
2018-12-30T09:21:30.440Z,5.93
2018-12-30T09:24:00.635Z,7.30
2018-12-30T09:26:30.856Z,9.73
2018-12-30T09:29:01.168Z,8.83
2018-12-30T09:31:31.377Z,5.80
2018-12-30T09:34:01.586Z,4.27
2018-12-30T09:36:31.818Z,8.43
2018-12-30T09:39:02.019Z,7.43
2018-12-30T09:41:32.245Z,10.10
2018-12-30T09:44:02.540Z,5.33
2018-12-30T09:46:32.761Z,5.57
2018-12-30T09:49:02.972Z,7.40
2018-12-30T09:51:33.196Z,9.63
2018-12-30T09:54:03.392Z,14.13
2018-12-30T09:56:33.643Z,5.40
2018-12-30T09:59:03.905Z,6.47
2018-12-30T10:01:34.137Z,4.57
2018-12-30T10:04:04.342Z,14.33
2018-12-30T10:06:34.562Z,6.83
2018-12-30T10:09:07.570Z,5.33
2018-12-30T10:11:57.697Z,8.67
2018-12-30T10:14:27.895Z,5.87
2018-12-30T10:16:58.121Z,9.63
2018-12-30T10:19:28.338Z,5.90
2018-12-30T10:21:58.650Z,3.50
2018-12-30T10:24:28.837Z,10.07
2018-12-30T10:26:59.103Z,6.50
2018-12-30T10:29:29.299Z,6.23
2018-12-30T10:31:59.531Z,12.73
2018-12-30T10:34:29.744Z,6.53
2018-12-30T10:36:59.992Z,8.23
2018-12-30T10:39:30.556Z,11.67
2018-12-30T10:42:01.137Z,6.77
2018-12-30T10:44:31.650Z,6.40
2018-12-30T10:47:02.190Z,11.77
2018-12-30T10:49:32.378Z,6.40
2018-12-30T10:52:02.613Z,7.20
2018-12-30T10:54:32.815Z,8.57
2018-12-30T10:57:03.066Z,9.17
2018-12-30T10:59:33.287Z,8.03
2018-12-30T11:02:03.499Z,7.13
2018-12-30T11:04:34.356Z,5.03
2018-12-30T11:07:04.588Z,7.47
2018-12-30T11:09:34.786Z,3.80
2018-12-30T11:12:05.153Z,7.37
2018-12-30T11:14:35.343Z,4.53
2018-12-30T11:17:05.652Z,11.07
2018-12-30T11:19:35.996Z,14.00
2018-12-30T11:22:08.002Z,6.27
2018-12-30T11:24:38.210Z,10.77
2018-12-30T11:27:08.440Z,8.27
2018-12-30T11:29:38.735Z,10.13
2018-12-30T11:32:09.116Z,8.07
2018-12-30T11:34:39.359Z,9.77
2018-12-30T11:37:09.592Z,11.77
2018-12-30T11:39:42.525Z,10.43
2018-12-30T11:42:12.737Z,8.87
2018-12-30T11:44:42.960Z,6.27
2018-12-30T11:47:13.255Z,8.27
2018-12-30T11:49:43.521Z,9.33
2018-12-30T11:52:13.728Z,4.30
2018-12-30T11:54:43.956Z,9.17
2018-12-30T11:57:14.162Z,4.60
2018-12-30T11:59:44.395Z,6.33
2018-12-30T12:02:14.650Z,5.73
2018-12-30T12:04:45.659Z,7.00
2018-12-30T12:07:15.857Z,6.97
2018-12-30T12:09:46.086Z,11.07
2018-12-30T12:12:16.310Z,7.60
2018-12-30T12:14:46.692Z,8.07
2018-12-30T12:17:16.902Z,3.77
2018-12-30T12:19:47.151Z,7.63
2018-12-30T12:22:17.366Z,5.13
2018-12-30T12:24:47.809Z,8.37
2018-12-30T12:27:18.018Z,4.43
2018-12-30T12:29:48.891Z,10.57
2018-12-30T12:32:19.074Z,13.20
2018-12-30T12:34:49.390Z,5.30
2018-12-30T12:37:19.599Z,6.27
2018-12-30T12:39:49.825Z,8.90
2018-12-30T12:42:20.052Z,5.80
2018-12-30T12:44:51.935Z,5.70
2018-12-30T12:47:22.147Z,5.50
2018-12-30T12:49:52.378Z,6.83
2018-12-30T12:52:22.682Z,11.70
2018-12-30T12:54:52.924Z,7.23
2018-12-30T12:57:23.148Z,10.27
2018-12-30T12:59:53.391Z,6.67
2018-12-30T13:02:23.602Z,7.90
2018-12-30T13:04:53.847Z,18.57
2018-12-30T13:07:24.040Z,9.00
2018-12-30T13:09:54.283Z,10.47
2018-12-30T13:12:24.511Z,8.63
2018-12-30T13:14:54.705Z,11.53
2018-12-30T13:17:24.961Z,8.07
2018-12-30T13:19:55.188Z,21.03
2018-12-30T13:22:25.412Z,6.70
2018-12-30T13:24:55.643Z,13.93
2018-12-30T13:27:25.930Z,22.50
2018-12-30T13:29:56.163Z,15.47
2018-12-30T13:32:26.428Z,10.90
2018-12-30T13:34:56.708Z,23.60
2018-12-30T13:37:26.961Z,47.93
2018-12-30T13:39:57.291Z,20.97
2018-12-30T13:42:27.532Z,13.63
2018-12-30T13:44:57.797Z,9.20
2018-12-30T13:47:28.015Z,9.73
2018-12-30T13:49:58.256Z,13.10
2018-12-30T13:52:28.455Z,12.47
2018-12-30T13:54:59.789Z,6.43
2018-12-30T13:57:29.989Z,8.03
2018-12-30T14:00:00.284Z,12.87
2018-12-30T14:02:34.808Z,13.43
2018-12-30T14:05:06.813Z,9.30
2018-12-30T14:07:37.160Z,13.13
2018-12-30T14:10:09.693Z,10.53
2018-12-30T14:12:40.142Z,10.27
2018-12-30T14:15:10.379Z,19.30
2018-12-30T14:17:40.593Z,10.30
2018-12-30T14:20:10.796Z,9.33
2018-12-30T14:22:41.014Z,9.73
2018-12-30T14:25:11.371Z,8.70
2018-12-30T14:27:41.706Z,9.83
2018-12-30T14:30:12.054Z,12.37
2018-12-30T14:32:42.259Z,5.00
2018-12-30T14:35:12.570Z,10.47
2018-12-30T14:37:43.008Z,8.13
2018-12-30T14:40:13.336Z,10.90
2018-12-30T14:42:43.844Z,8.03
2018-12-30T14:45:20.098Z,15.37
2018-12-30T14:47:50.510Z,6.77
2018-12-30T14:50:20.816Z,14.17
2018-12-30T14:52:51.068Z,9.40
2018-12-30T14:55:21.424Z,13.33
2018-12-30T14:57:51.736Z,11.10
2018-12-30T15:00:21.960Z,11.40
2018-12-30T15:02:52.173Z,18.40
2018-12-30T15:05:22.412Z,15.30
2018-12-30T15:07:52.642Z,22.30
2018-12-30T15:10:22.854Z,15.33
2018-12-30T15:12:53.067Z,13.40
2018-12-30T15:15:23.274Z,13.33
2018-12-30T15:17:53.487Z,11.57
2018-12-30T15:20:23.708Z,6.63
2018-12-30T15:22:53.910Z,13.10
2018-12-30T15:25:24.170Z,11.57
2018-12-30T15:27:54.346Z,10.23
2018-12-30T15:30:24.598Z,11.73
2018-12-30T15:32:54.814Z,9.13
2018-12-30T15:35:25.049Z,13.70
2018-12-30T15:37:55.262Z,12.90
2018-12-30T15:40:25.493Z,15.90
2018-12-30T15:42:55.695Z,9.57
2018-12-30T15:45:25.936Z,11.30
2018-12-30T15:47:56.153Z,12.27
2018-12-30T15:50:26.382Z,14.63
2018-12-30T15:52:56.573Z,14.00
2018-12-30T15:55:26.798Z,13.67
2018-12-30T15:57:57.007Z,11.57
2018-12-30T16:00:27.251Z,15.23
2018-12-30T16:02:57.477Z,8.67
2018-12-30T16:05:27.718Z,8.60
2018-12-30T16:07:57.929Z,13.30
2018-12-30T16:10:28.198Z,10.43
2018-12-30T16:13:00.061Z,15.03
2018-12-30T16:15:30.389Z,13.73
2018-12-30T16:18:00.762Z,16.30
2018-12-30T16:20:31.323Z,12.63
2018-12-30T16:23:01.538Z,10.53
2018-12-30T16:25:31.789Z,16.87
2018-12-30T16:28:01.983Z,13.63
2018-12-30T16:30:32.323Z,11.90
2018-12-30T16:33:02.529Z,14.73
2018-12-30T16:35:32.739Z,10.17
2018-12-30T16:38:02.943Z,8.57
2018-12-30T16:40:33.200Z,14.70
2018-12-30T16:43:03.396Z,11.03
2018-12-30T16:45:33.661Z,10.70
2018-12-30T16:48:03.872Z,17.40
2018-12-30T16:50:34.121Z,10.63
2018-12-30T16:53:04.359Z,16.03
2018-12-30T16:55:35.099Z,12.27
2018-12-30T16:58:07.523Z,15.20
2018-12-30T17:00:37.845Z,18.93
2018-12-30T17:03:08.805Z,15.87
2018-12-30T17:05:39.039Z,11.27
2018-12-30T17:08:09.236Z,14.43
2018-12-30T17:10:39.488Z,8.40
2018-12-30T17:13:09.679Z,14.60
2018-12-30T17:15:39.922Z,10.33
2018-12-30T17:18:10.115Z,12.70
2018-12-30T17:20:41.978Z,13.93
2018-12-30T17:23:12.340Z,11.10
2018-12-30T17:25:43.213Z,15.07
2018-12-30T17:28:13.709Z,15.30
2018-12-30T17:30:43.958Z,15.63
2018-12-30T17:33:14.152Z,11.83
2018-12-30T17:35:46.195Z,16.23
2018-12-30T17:38:16.461Z,12.00
2018-12-30T17:40:46.699Z,12.73
2018-12-30T17:43:16.899Z,15.43
2018-12-30T17:45:47.147Z,12.63
2018-12-30T17:48:17.353Z,10.33
2018-12-30T17:50:47.592Z,11.80
2018-12-30T17:53:17.784Z,14.60
2018-12-30T17:55:50.882Z,11.67
2018-12-30T17:58:19.922Z,13.93
2018-12-30T18:00:50.167Z,17.83
2018-12-30T18:03:20.452Z,10.63
2018-12-30T18:05:50.692Z,19.87
2018-12-30T18:08:20.883Z,13.23
2018-12-30T18:10:51.103Z,10.73
2018-12-30T18:13:21.305Z,14.00
2018-12-30T18:15:51.612Z,19.77
2018-12-30T18:18:21.826Z,10.90
2018-12-30T18:20:52.027Z,16.37
2018-12-30T18:23:22.241Z,7.30
2018-12-30T18:25:58.621Z,11.03
2018-12-30T18:28:24.447Z,10.97
2018-12-30T18:30:54.698Z,13.80
2018-12-30T18:33:24.925Z,10.67
2018-12-30T18:35:55.144Z,13.07
2018-12-30T18:38:25.362Z,10.20
2018-12-30T18:40:55.629Z,9.47
2018-12-30T18:43:25.843Z,7.13
2018-12-30T18:45:56.063Z,16.27
2018-12-30T18:48:26.277Z,11.37
2018-12-30T18:50:56.519Z,13.53
2018-12-30T18:53:26.815Z,10.03
2018-12-30T18:55:57.043Z,9.20
2018-12-30T18:58:27.253Z,15.03
2018-12-30T19:00:57.515Z,12.37
2018-12-30T19:03:27.727Z,13.30
2018-12-30T19:05:57.991Z,17.20
2018-12-30T19:08:28.221Z,18.13
2018-12-30T19:10:58.465Z,10.10
2018-12-30T19:13:28.682Z,14.97
2018-12-30T19:15:58.941Z,11.03
2018-12-30T19:18:29.245Z,11.53
2018-12-30T19:20:59.489Z,11.40
2018-12-30T19:23:29.757Z,18.03
2018-12-30T19:26:01.167Z,16.20
2018-12-30T19:28:31.586Z,11.73
2018-12-30T19:31:01.844Z,14.00
2018-12-30T19:33:32.063Z,11.70
2018-12-30T19:36:02.290Z,15.83
2018-12-30T19:38:32.494Z,9.47
2018-12-30T19:41:02.786Z,17.27
2018-12-30T19:43:33.066Z,16.00
2018-12-30T19:46:04.063Z,12.23
2018-12-30T19:48:34.414Z,17.17
2018-12-30T19:51:04.705Z,16.60
2018-12-30T19:53:34.964Z,18.33
2018-12-30T19:56:05.187Z,15.40
2018-12-30T19:58:36.272Z,13.00
2018-12-30T20:01:06.506Z,14.70
2018-12-30T20:03:36.703Z,14.40
2018-12-30T20:06:06.942Z,12.63
2018-12-30T20:08:37.150Z,20.77
2018-12-30T20:11:07.368Z,16.20
2018-12-30T20:13:37.582Z,12.53
2018-12-30T20:16:07.849Z,20.67
2018-12-30T20:18:38.038Z,14.50
2018-12-30T20:21:08.288Z,14.70
2018-12-30T20:23:38.495Z,15.83
2018-12-30T20:26:08.728Z,15.20
2018-12-30T20:28:38.973Z,12.63
2018-12-30T20:31:09.242Z,15.03
2018-12-30T20:33:39.420Z,10.00
2018-12-30T20:36:09.661Z,13.77
2018-12-30T20:38:39.874Z,13.53
2018-12-30T20:41:10.107Z,14.47
2018-12-30T20:43:40.339Z,17.30
2018-12-30T20:46:10.579Z,12.87
2018-12-30T20:48:40.839Z,14.00
2018-12-30T20:51:11.089Z,18.83
2018-12-30T20:53:41.309Z,17.07
2018-12-30T20:56:11.576Z,17.27
2018-12-30T20:58:41.817Z,15.70
2018-12-30T21:01:12.110Z,15.60
2018-12-30T21:03:42.359Z,19.90
2018-12-30T21:06:12.622Z,14.30
2018-12-30T21:08:42.868Z,19.97
2018-12-30T21:11:13.111Z,15.00
2018-12-30T21:13:43.337Z,21.10
2018-12-30T21:16:13.576Z,20.17
2018-12-30T21:18:43.807Z,19.47
2018-12-30T21:21:14.023Z,21.23
2018-12-30T21:23:44.221Z,19.53
2018-12-30T21:26:14.507Z,25.13
2018-12-30T21:28:44.705Z,21.73
2018-12-30T21:31:14.986Z,17.30
2018-12-30T21:33:45.192Z,17.10
2018-12-30T21:36:15.435Z,15.73
2018-12-30T21:38:45.700Z,19.70
2018-12-30T21:41:15.963Z,22.63
2018-12-30T21:43:46.182Z,18.63
2018-12-30T21:46:16.444Z,21.17
2018-12-30T21:48:46.717Z,28.50
2018-12-30T21:51:17.017Z,17.50
2018-12-30T21:53:47.251Z,18.20
2018-12-30T21:56:17.483Z,18.27
2018-12-30T21:58:47.685Z,13.80
2018-12-30T22:01:17.975Z,13.47
2018-12-30T22:03:48.176Z,18.23
2018-12-30T22:06:18.422Z,17.70
2018-12-30T22:08:48.613Z,13.00
2018-12-30T22:11:18.871Z,15.50
2018-12-30T22:13:49.067Z,12.93
2018-12-30T22:16:19.335Z,18.90
2018-12-30T22:18:49.565Z,20.53
2018-12-30T22:21:19.823Z,18.90
2018-12-30T22:23:50.007Z,16.37
2018-12-30T22:26:20.307Z,15.70
2018-12-30T22:28:50.984Z,18.20
2018-12-30T22:31:21.239Z,17.47
2018-12-30T22:33:51.515Z,16.97
2018-12-30T22:36:21.720Z,14.87
2018-12-30T22:38:52.781Z,19.93
2018-12-30T22:41:23.183Z,20.83
2018-12-30T22:43:53.382Z,22.10
2018-12-30T22:46:23.648Z,15.67
2018-12-30T22:48:53.908Z,22.27
2018-12-30T22:51:24.150Z,16.83
2018-12-30T22:53:54.335Z,17.33
2018-12-30T22:56:24.580Z,15.40
2018-12-30T22:58:54.781Z,18.10
2018-12-30T23:01:25.375Z,12.93
2018-12-30T23:03:55.599Z,15.83
2018-12-30T23:06:25.849Z,15.03
2018-12-30T23:08:56.039Z,18.67
2018-12-30T23:11:26.261Z,16.90
2018-12-30T23:13:56.470Z,17.90
2018-12-30T23:16:26.731Z,22.43
2018-12-30T23:18:56.942Z,22.30
2018-12-30T23:21:27.214Z,23.53
2018-12-30T23:23:57.511Z,19.57
2018-12-30T23:26:27.736Z,22.00
2018-12-30T23:28:57.981Z,17.07
2018-12-30T23:31:28.262Z,20.00
2018-12-30T23:33:58.485Z,17.93
2018-12-30T23:36:28.702Z,18.67
2018-12-30T23:38:58.932Z,16.57
2018-12-30T23:41:29.204Z,18.53
2018-12-30T23:43:59.416Z,18.73
2018-12-30T23:46:29.627Z,15.33
2018-12-30T23:48:59.829Z,14.30
2018-12-30T23:51:30.071Z,17.07
2018-12-30T23:54:00.306Z,15.07
2018-12-30T23:56:30.488Z,20.93
2018-12-30T23:59:00.718Z,16.83
